createdAt,value
2022-10-26T00:01:56.165Z,12.68
2022-10-26T00:04:22.597Z,12.63
2022-10-26T00:06:48.964Z,12.64
2022-10-26T00:09:15.342Z,12.57
2022-10-26T00:11:41.676Z,12.48
2022-10-26T00:14:08.050Z,12.47
2022-10-26T00:16:37.396Z,12.42
2022-10-26T00:19:03.766Z,12.48
2022-10-26T00:21:30.216Z,12.46
2022-10-26T00:23:56.567Z,12.40
2022-10-26T00:26:22.977Z,12.40
2022-10-26T00:28:53.132Z,12.39
2022-10-26T00:31:22.995Z,12.31
2022-10-26T00:33:53.946Z,12.30
2022-10-26T00:36:20.856Z,12.12
2022-10-26T00:38:54.933Z,12.18
2022-10-26T00:41:23.954Z,12.06
2022-10-26T00:43:50.697Z,12.01
2022-10-26T00:46:22.043Z,11.96
2022-10-26T00:48:56.025Z,11.90
2022-10-26T00:51:27.480Z,11.84
2022-10-26T00:53:55.023Z,11.71
2022-10-26T00:56:21.662Z,11.61
2022-10-26T00:58:48.530Z,11.63
2022-10-26T01:01:15.556Z,11.60
2022-10-26T01:03:43.059Z,11.50
2022-10-26T01:06:11.613Z,11.45
2022-10-26T01:08:38.822Z,11.36
2022-10-26T01:11:06.027Z,11.23
2022-10-26T01:13:36.993Z,11.18
2022-10-26T01:16:25.855Z,11.22
2022-10-26T01:18:55.288Z,11.14
2022-10-26T01:21:43.500Z,11.09
2022-10-26T01:24:09.939Z,11.02
2022-10-26T01:26:42.190Z,10.97
2022-10-26T01:29:28.912Z,10.93
2022-10-26T01:32:11.708Z,10.81
2022-10-26T01:34:47.206Z,10.79
2022-10-26T01:37:37.282Z,10.82
2022-10-26T01:40:14.601Z,10.77
2022-10-26T01:42:44.639Z,10.72
2022-10-26T01:45:14.723Z,10.70
2022-10-26T01:47:41.808Z,10.64
2022-10-26T01:50:10.027Z,10.64
2022-10-26T01:52:36.495Z,10.60
2022-10-26T01:55:07.537Z,10.59
2022-10-26T01:57:36.902Z,10.56
2022-10-26T02:00:03.502Z,10.55
2022-10-26T02:02:46.074Z,10.43
2022-10-26T02:05:31.329Z,10.51
2022-10-26T02:08:39.009Z,10.53
2022-10-26T02:11:17.419Z,10.47
2022-10-26T02:13:52.530Z,10.43
2022-10-26T02:16:25.698Z,10.40
2022-10-26T02:19:05.693Z,10.45
2022-10-26T02:21:41.338Z,10.38
2022-10-26T02:24:12.423Z,10.41
2022-10-26T02:26:41.629Z,10.40
2022-10-26T02:29:11.368Z,10.35
2022-10-26T02:31:40.540Z,10.37
2022-10-26T02:34:10.891Z,10.34
2022-10-26T02:36:42.242Z,10.30
2022-10-26T02:39:11.135Z,10.27
2022-10-26T02:41:40.492Z,10.23
2022-10-26T02:44:24.890Z,10.10
2022-10-26T02:46:52.324Z,10.17
2022-10-26T02:49:19.645Z,10.14
2022-10-26T02:52:09.169Z,10.15
2022-10-26T02:54:48.540Z,10.11
2022-10-26T02:57:41.882Z,10.04
2022-10-26T03:00:12.148Z,10.00
2022-10-26T03:02:38.451Z,10.09
2022-10-26T03:05:13.231Z,9.97
2022-10-26T03:07:39.616Z,9.93
2022-10-26T03:10:06.645Z,9.91
2022-10-26T03:12:33.022Z,9.84
2022-10-26T03:14:59.359Z,9.81
2022-10-26T03:17:25.795Z,9.87
2022-10-26T03:19:52.234Z,9.81
2022-10-26T03:22:18.635Z,9.82
2022-10-26T03:24:46.152Z,9.75
2022-10-26T03:27:12.522Z,9.80
2022-10-26T03:29:38.982Z,9.76
2022-10-26T03:32:05.942Z,9.74
2022-10-26T03:34:32.424Z,9.73
2022-10-26T03:36:58.871Z,9.63
2022-10-26T03:39:25.339Z,9.70
2022-10-26T03:41:51.793Z,9.68
2022-10-26T03:44:18.259Z,9.63
2022-10-26T03:46:44.799Z,9.65
2022-10-26T03:49:11.261Z,9.62
2022-10-26T03:51:37.790Z,9.62
2022-10-26T03:54:04.883Z,9.60
2022-10-26T03:56:31.363Z,9.59
2022-10-26T03:58:58.053Z,9.58
2022-10-26T04:01:24.519Z,9.56
2022-10-26T04:03:50.951Z,9.48
2022-10-26T04:06:17.513Z,9.48
2022-10-26T04:08:43.877Z,9.46
2022-10-26T04:11:10.271Z,9.44
2022-10-26T04:13:36.719Z,9.48
2022-10-26T04:16:03.127Z,9.41
2022-10-26T04:18:29.489Z,9.47
2022-10-26T04:20:55.895Z,9.45
2022-10-26T04:23:22.478Z,9.38
2022-10-26T04:25:48.867Z,9.41
2022-10-26T04:28:15.301Z,9.45
2022-10-26T04:30:41.938Z,9.45
2022-10-26T04:33:08.478Z,9.43
2022-10-26T04:35:35.243Z,9.43
2022-10-26T04:38:03.792Z,9.43
2022-10-26T04:40:31.391Z,9.44
2022-10-26T04:42:57.800Z,9.44
2022-10-26T04:45:24.538Z,9.35
2022-10-26T04:48:02.508Z,9.39
2022-10-26T04:50:29.003Z,9.44
2022-10-26T04:52:55.396Z,9.47
2022-10-26T04:55:21.880Z,9.47
2022-10-26T04:57:48.579Z,9.47
2022-10-26T05:00:15.356Z,9.46
2022-10-26T05:02:41.734Z,9.48
2022-10-26T05:05:11.214Z,9.41
2022-10-26T05:07:40.551Z,9.45
2022-10-26T05:10:08.034Z,9.48
2022-10-26T05:12:34.716Z,9.49
2022-10-26T05:15:03.911Z,9.43
2022-10-26T05:17:32.760Z,9.50
2022-10-26T05:20:00.495Z,9.45
2022-10-26T05:22:27.407Z,9.44
2022-10-26T05:24:53.876Z,9.47
2022-10-26T05:27:20.692Z,9.44
2022-10-26T05:29:47.072Z,9.44
2022-10-26T05:32:13.421Z,9.42
2022-10-26T05:34:41.534Z,9.47
2022-10-26T05:37:08.038Z,9.46
2022-10-26T05:39:37.526Z,9.38
2022-10-26T05:42:03.930Z,9.44
2022-10-26T05:44:30.288Z,9.41
2022-10-26T05:46:56.619Z,9.37
2022-10-26T05:49:23.128Z,9.42
2022-10-26T05:51:49.739Z,9.42
2022-10-26T05:54:16.139Z,9.39
2022-10-26T05:56:42.852Z,9.44
2022-10-26T05:59:14.833Z,9.45
2022-10-26T06:01:57.344Z,9.47
2022-10-26T06:04:38.471Z,9.48
2022-10-26T06:07:11.744Z,9.45
2022-10-26T06:09:39.350Z,9.42
2022-10-26T06:12:07.511Z,9.41
2022-10-26T06:14:35.212Z,9.46
2022-10-26T06:17:09.504Z,9.46
2022-10-26T06:20:00.386Z,9.49
2022-10-26T06:22:52.129Z,9.50
2022-10-26T06:25:33.905Z,9.48
2022-10-26T06:28:11.594Z,9.48
2022-10-26T06:30:40.380Z,9.48
2022-10-26T06:33:18.421Z,9.30
2022-10-26T06:36:08.179Z,9.51
2022-10-26T06:38:36.464Z,9.52
2022-10-26T06:41:03.718Z,9.50
2022-10-26T06:43:34.648Z,9.59
2022-10-26T06:46:29.981Z,9.65
2022-10-26T06:49:22.197Z,9.64
2022-10-26T06:51:58.583Z,9.66
2022-10-26T06:54:49.555Z,9.76
2022-10-26T06:57:18.765Z,9.78
2022-10-26T06:59:54.379Z,9.82
2022-10-26T07:02:21.096Z,9.86
2022-10-26T07:04:47.803Z,9.82
2022-10-26T07:07:22.121Z,9.91
2022-10-26T07:09:49.396Z,9.98
2022-10-26T07:12:15.906Z,10.04
2022-10-26T07:14:42.320Z,10.08
2022-10-26T07:17:10.132Z,10.10
2022-10-26T07:19:36.562Z,10.17
2022-10-26T07:22:03.195Z,10.27
2022-10-26T07:24:30.282Z,10.26
2022-10-26T07:26:57.955Z,10.41
2022-10-26T07:29:25.959Z,10.48
2022-10-26T07:34:20.339Z,10.66
2022-10-26T07:36:46.837Z,10.72
2022-10-26T07:39:13.202Z,10.83
2022-10-26T07:41:39.574Z,10.92
2022-10-26T07:44:05.933Z,10.92
2022-10-26T07:46:32.307Z,11.12
2022-10-26T07:48:58.753Z,11.20
2022-10-26T07:51:25.740Z,11.25
2022-10-26T07:53:52.131Z,11.39
2022-10-26T07:56:18.662Z,11.46
2022-10-26T07:58:45.178Z,11.57
2022-10-26T08:01:14.294Z,11.67
2022-10-26T08:03:41.717Z,11.76
2022-10-26T08:06:09.493Z,11.83
2022-10-26T08:08:36.471Z,11.96
2022-10-26T08:11:03.783Z,12.08
2022-10-26T08:13:30.381Z,12.20
2022-10-26T08:16:01.497Z,12.32
2022-10-26T08:18:28.411Z,12.44
2022-10-26T08:21:01.796Z,12.55
2022-10-26T08:23:37.872Z,12.64
2022-10-26T08:26:05.033Z,12.87
2022-10-26T08:28:31.542Z,13.00
2022-10-26T08:30:58.140Z,13.15
2022-10-26T08:33:25.435Z,13.31
2022-10-26T08:35:59.368Z,13.51
2022-10-26T08:38:26.183Z,13.59
2022-10-26T08:40:53.835Z,13.78
2022-10-26T08:43:29.338Z,13.96
2022-10-26T08:46:11.203Z,14.14
2022-10-26T08:48:47.479Z,14.31
2022-10-26T08:51:35.291Z,14.53
2022-10-26T08:54:18.006Z,14.73
2022-10-26T08:56:50.895Z,14.87
2022-10-26T08:59:37.356Z,15.12
2022-10-26T09:02:04.004Z,15.19
2022-10-26T09:04:32.237Z,15.34
2022-10-26T09:07:22.735Z,15.52
2022-10-26T09:10:20.164Z,15.62
2022-10-26T09:13:00.217Z,15.63
2022-10-26T09:15:32.620Z,15.74
2022-10-26T09:18:27.131Z,15.85
2022-10-26T09:20:56.346Z,15.98
2022-10-26T09:23:59.304Z,16.20
2022-10-26T09:26:41.941Z,16.27
2022-10-26T09:29:13.387Z,16.40
2022-10-26T09:31:43.505Z,16.52
2022-10-26T09:34:31.528Z,16.71
2022-10-26T09:36:58.187Z,16.90
2022-10-26T09:39:30.099Z,17.15
2022-10-26T09:42:01.137Z,17.34
2022-10-26T09:44:39.366Z,17.67
2022-10-26T09:47:38.337Z,18.00
2022-10-26T09:50:26.078Z,18.33
2022-10-26T09:52:52.815Z,18.42
2022-10-26T09:55:22.876Z,18.68
2022-10-26T09:57:56.068Z,18.93
2022-10-26T10:00:25.148Z,19.15
2022-10-26T10:02:56.698Z,19.35
2022-10-26T10:05:52.131Z,19.62
2022-10-26T10:08:23.293Z,19.82
2022-10-26T10:11:03.668Z,20.01
2022-10-26T10:13:32.870Z,20.15
2022-10-26T10:16:06.032Z,20.31
2022-10-26T10:18:33.777Z,20.47
2022-10-26T10:21:00.833Z,20.53
2022-10-26T10:23:54.358Z,20.91
2022-10-26T10:26:20.763Z,20.92
2022-10-26T10:29:01.049Z,21.14
2022-10-26T10:31:32.526Z,21.20
2022-10-26T10:33:59.410Z,21.26
2022-10-26T10:36:31.656Z,21.32
2022-10-26T10:38:58.111Z,21.40
2022-10-26T10:41:36.637Z,21.55
2022-10-26T10:44:18.045Z,21.55
2022-10-26T10:46:44.510Z,21.64
2022-10-26T10:49:24.496Z,21.86
2022-10-26T10:51:51.500Z,22.23
2022-10-26T10:54:37.806Z,22.03
2022-10-26T10:57:19.805Z,22.09
2022-10-26T10:59:55.511Z,22.14
2022-10-26T11:02:51.457Z,22.17
2022-10-26T11:05:48.831Z,22.50
2022-10-26T11:08:35.458Z,22.62
2022-10-26T11:11:10.947Z,22.61
2022-10-26T11:13:49.716Z,22.81
2022-10-26T11:16:30.955Z,22.97
2022-10-26T11:19:16.117Z,23.08
2022-10-26T11:21:45.584Z,23.21
2022-10-26T11:24:21.459Z,23.41
2022-10-26T11:26:53.928Z,23.52
2022-10-26T11:29:27.937Z,23.64
2022-10-26T11:32:01.701Z,23.67
2022-10-26T11:34:59.183Z,23.84
2022-10-26T11:37:32.530Z,23.69
2022-10-26T11:40:42.906Z,23.73
2022-10-26T11:43:18.762Z,23.55
2022-10-26T11:45:46.881Z,23.48
2022-10-26T11:48:20.128Z,23.50
2022-10-26T11:50:52.332Z,23.56
2022-10-26T11:53:23.224Z,23.63
2022-10-26T11:55:53.249Z,23.73
2022-10-26T11:58:24.055Z,23.90
2022-10-26T12:01:13.892Z,24.14
2022-10-26T12:03:45.583Z,24.53
2022-10-26T12:06:15.179Z,24.25
2022-10-26T12:08:50.939Z,24.30
2022-10-26T12:11:38.936Z,24.34
2022-10-26T12:14:12.759Z,24.41
2022-10-26T12:16:48.643Z,24.45
2022-10-26T12:19:44.559Z,24.46
2022-10-26T12:22:14.398Z,24.47
2022-10-26T12:24:45.612Z,24.55
2022-10-26T12:27:44.413Z,24.75
2022-10-26T12:30:18.712Z,24.71
2022-10-26T12:32:45.008Z,24.82
2022-10-26T12:35:41.903Z,25.07
2022-10-26T12:38:31.672Z,25.21
2022-10-26T12:41:09.913Z,25.20
2022-10-26T12:43:40.849Z,25.29
2022-10-26T12:46:13.510Z,25.37
2022-10-26T12:48:50.985Z,25.45
2022-10-26T12:51:23.068Z,25.46
2022-10-26T12:54:04.678Z,25.48
2022-10-26T12:56:41.958Z,25.52
2022-10-26T12:59:26.938Z,25.46
2022-10-26T13:02:02.208Z,25.48
2022-10-26T13:04:53.308Z,25.43
2022-10-26T13:07:25.086Z,25.33
2022-10-26T13:10:02.706Z,25.29
2022-10-26T13:12:38.192Z,25.20
2022-10-26T13:15:35.388Z,25.14
2022-10-26T13:18:09.778Z,25.07
2022-10-26T13:20:52.867Z,25.05
2022-10-26T13:23:26.569Z,25.04
2022-10-26T13:26:02.353Z,25.04
2022-10-26T13:28:37.742Z,25.05
2022-10-26T13:31:35.114Z,24.98
2022-10-26T13:34:20.856Z,25.14
2022-10-26T13:37:08.323Z,25.10
2022-10-26T13:39:41.900Z,25.06
2022-10-26T13:42:15.805Z,25.04
2022-10-26T13:44:51.204Z,25.00
2022-10-26T13:47:27.476Z,24.82
2022-10-26T13:49:58.762Z,24.53
2022-10-26T13:52:53.579Z,24.56
2022-10-26T13:55:31.220Z,24.32
2022-10-26T13:58:22.394Z,24.16
2022-10-26T14:01:16.422Z,24.01
2022-10-26T14:03:43.138Z,23.65
2022-10-26T14:06:27.619Z,23.49
2022-10-26T14:08:57.619Z,23.36
2022-10-26T14:11:32.616Z,23.50
2022-10-26T14:14:00.008Z,23.08
2022-10-26T14:16:30.278Z,22.90
2022-10-26T14:18:57.242Z,22.80
2022-10-26T14:21:23.823Z,22.68
2022-10-26T14:23:56.094Z,22.69
2022-10-26T14:26:25.635Z,22.62
2022-10-26T14:28:55.083Z,22.59
2022-10-26T14:31:32.724Z,22.72
2022-10-26T14:34:01.559Z,22.69
2022-10-26T14:36:37.429Z,22.77
2022-10-26T14:39:09.380Z,22.85
2022-10-26T14:41:36.335Z,22.85
2022-10-26T14:44:04.807Z,23.01
2022-10-26T14:46:35.275Z,23.05
2022-10-26T14:49:03.262Z,23.06
2022-10-26T14:51:34.921Z,23.11
2022-10-26T14:54:03.272Z,23.17
2022-10-26T14:56:35.390Z,23.17
2022-10-26T14:59:23.234Z,23.12
2022-10-26T15:01:53.438Z,23.10
2022-10-26T15:04:33.891Z,23.05
2022-10-26T15:07:12.351Z,22.96
2022-10-26T15:09:42.890Z,22.77
2022-10-26T15:12:34.679Z,22.62
2022-10-26T15:17:54.475Z,22.13
2022-10-26T15:20:23.362Z,21.83
2022-10-26T15:23:01.859Z,21.67
2022-10-26T15:25:30.542Z,21.34
2022-10-26T15:28:23.741Z,21.23
2022-10-26T15:31:24.491Z,20.99
2022-10-26T15:33:50.773Z,20.69
2022-10-26T15:36:20.731Z,20.47
2022-10-26T15:38:51.859Z,20.27
2022-10-26T15:41:21.394Z,20.09
2022-10-26T15:43:52.320Z,19.77
2022-10-26T15:46:22.895Z,19.69
2022-10-26T15:48:55.448Z,19.42
2022-10-26T15:51:21.936Z,19.27
2022-10-26T15:53:51.015Z,19.05
2022-10-26T15:56:20.042Z,18.97
2022-10-26T15:58:47.094Z,18.80
2022-10-26T16:01:17.029Z,18.54
2022-10-26T16:03:43.866Z,18.48
2022-10-26T16:06:27.476Z,18.38
2022-10-26T16:08:56.912Z,18.19
2022-10-26T16:11:23.426Z,18.06
2022-10-26T16:16:18.682Z,17.97
2022-10-26T16:18:46.167Z,17.88
2022-10-26T16:21:14.663Z,17.88
2022-10-26T16:23:41.715Z,17.76
2022-10-26T16:26:08.518Z,17.81
2022-10-26T16:28:36.156Z,17.76
2022-10-26T16:31:05.510Z,17.73
2022-10-26T16:33:32.001Z,17.69
2022-10-26T16:35:59.637Z,17.60
2022-10-26T16:38:27.428Z,17.59
2022-10-26T16:41:04.694Z,17.55
2022-10-26T16:43:32.745Z,17.39
2022-10-26T16:46:00.183Z,17.40
2022-10-26T16:48:26.701Z,17.32
2022-10-26T16:50:56.148Z,17.22
2022-10-26T16:53:23.623Z,17.16
2022-10-26T16:55:50.032Z,17.06
2022-10-26T16:58:16.516Z,16.98
2022-10-26T17:00:42.897Z,16.72
2022-10-26T17:03:09.318Z,16.75
2022-10-26T17:05:35.662Z,16.74
2022-10-26T17:08:02.090Z,16.60
2022-10-26T17:10:28.649Z,16.60
2022-10-26T17:12:55.540Z,16.47
2022-10-26T17:15:23.280Z,16.47
2022-10-26T17:17:51.648Z,16.39
2022-10-26T17:20:18.092Z,16.33
2022-10-26T17:22:44.452Z,16.30
2022-10-26T17:25:10.817Z,16.22
2022-10-26T17:27:37.191Z,16.15
2022-10-26T17:30:03.797Z,16.14
2022-10-26T17:32:30.734Z,16.11
2022-10-26T17:34:57.110Z,15.98
2022-10-26T17:37:23.559Z,15.94
2022-10-26T17:39:49.950Z,16.04
2022-10-26T17:42:16.317Z,16.01
2022-10-26T17:44:42.667Z,16.02
2022-10-26T17:47:09.830Z,16.09
2022-10-26T17:49:36.548Z,16.02
2022-10-26T17:52:03.736Z,16.12
2022-10-26T17:54:30.090Z,16.26
2022-10-26T17:56:56.477Z,16.34
2022-10-26T17:59:22.839Z,16.42
2022-10-26T18:01:49.586Z,16.49
2022-10-26T18:04:16.012Z,16.58
2022-10-26T18:06:42.378Z,16.69
2022-10-26T18:09:08.793Z,16.78
2022-10-26T18:11:35.182Z,16.86
2022-10-26T18:14:01.540Z,16.94
2022-10-26T18:16:28.807Z,16.96
2022-10-26T18:19:01.745Z,17.07
2022-10-26T18:21:30.355Z,17.08
2022-10-26T18:23:56.748Z,17.04
2022-10-26T18:26:26.078Z,17.19
2022-10-26T18:28:52.967Z,17.19
2022-10-26T18:31:21.524Z,17.29
2022-10-26T18:33:48.219Z,17.33
2022-10-26T18:36:17.409Z,17.36
2022-10-26T18:38:49.101Z,17.35
2022-10-26T18:41:17.210Z,17.39
2022-10-26T18:43:45.735Z,17.40
2022-10-26T18:46:24.287Z,17.42
2022-10-26T18:48:51.971Z,17.35
2022-10-26T18:51:20.605Z,17.38
2022-10-26T18:53:48.231Z,17.29
2022-10-26T18:56:17.569Z,17.31
2022-10-26T18:58:46.668Z,17.31
2022-10-26T19:01:19.717Z,17.29
2022-10-26T19:03:47.380Z,17.24
2022-10-26T19:06:22.455Z,17.21
2022-10-26T19:08:48.854Z,17.17
2022-10-26T19:11:17.498Z,17.14
2022-10-26T19:13:44.261Z,17.11
2022-10-26T19:16:17.509Z,17.07
2022-10-26T19:18:48.899Z,16.94
2022-10-26T19:21:19.215Z,17.02
2022-10-26T19:23:47.082Z,17.14
2022-10-26T19:26:16.266Z,17.01
2022-10-26T19:28:42.995Z,16.98
2022-10-26T19:31:11.764Z,16.96
2022-10-26T19:33:38.351Z,16.96
2022-10-26T19:36:07.697Z,16.97
2022-10-26T19:38:34.596Z,16.95
2022-10-26T19:41:06.084Z,16.96
2022-10-26T19:43:34.663Z,16.97
2022-10-26T19:46:12.855Z,16.98
2022-10-26T19:48:40.136Z,16.95
2022-10-26T19:51:07.411Z,16.91
2022-10-26T19:53:34.483Z,16.91
2022-10-26T19:56:01.780Z,16.78
2022-10-26T19:58:31.018Z,16.84
2022-10-26T20:01:01.836Z,16.80
2022-10-26T20:03:29.310Z,16.73
2022-10-26T20:06:01.146Z,16.70
2022-10-26T20:08:28.403Z,16.64
2022-10-26T20:10:56.779Z,16.62
2022-10-26T20:13:26.147Z,16.49
2022-10-26T20:15:53.065Z,16.52
2022-10-26T20:18:20.206Z,16.49
2022-10-26T20:20:46.672Z,16.42
2022-10-26T20:23:13.086Z,16.44
2022-10-26T20:25:45.438Z,16.39
2022-10-26T20:28:11.879Z,16.36
2022-10-26T20:30:38.463Z,16.34
2022-10-26T20:33:05.595Z,16.22
2022-10-26T20:35:32.834Z,16.26
2022-10-26T20:38:00.105Z,16.21
2022-10-26T20:40:27.773Z,16.16
2022-10-26T20:42:54.964Z,16.16
2022-10-26T20:45:27.514Z,16.14
2022-10-26T20:47:54.596Z,16.11
2022-10-26T20:50:26.745Z,16.12
2022-10-26T20:53:04.230Z,16.13
2022-10-26T20:55:50.905Z,16.08
2022-10-26T20:58:17.391Z,16.08
2022-10-26T21:01:27.183Z,16.10
2022-10-26T21:03:55.249Z,16.03
2022-10-26T21:06:22.169Z,15.99
2022-10-26T21:08:49.972Z,15.96
2022-10-26T21:11:17.175Z,15.95
2022-10-26T21:13:44.546Z,15.94
2022-10-26T21:16:11.094Z,15.85
2022-10-26T21:18:37.513Z,15.89
2022-10-26T21:21:04.012Z,15.85
2022-10-26T21:23:34.922Z,15.78
2022-10-26T21:26:01.594Z,15.79
2022-10-26T21:28:34.544Z,15.88
2022-10-26T21:31:06.077Z,15.87
2022-10-26T21:33:32.737Z,15.79
2022-10-26T21:36:00.586Z,15.79
2022-10-26T21:38:28.489Z,15.79
2022-10-26T21:41:06.306Z,15.86
2022-10-26T21:43:33.867Z,15.80
2022-10-26T21:46:04.537Z,15.79
2022-10-26T21:48:32.017Z,15.79
2022-10-26T21:51:00.503Z,15.72
2022-10-26T21:53:27.177Z,15.66
2022-10-26T21:56:09.661Z,15.72
2022-10-26T21:58:36.593Z,15.68
2022-10-26T22:01:07.953Z,15.56
2022-10-26T22:03:37.713Z,15.63
2022-10-26T22:06:05.347Z,15.61
2022-10-26T22:08:31.823Z,15.54
2022-10-26T22:10:58.789Z,15.49
2022-10-26T22:13:25.298Z,15.57
2022-10-26T22:16:11.849Z,15.54
2022-10-26T22:18:40.786Z,15.53
2022-10-26T22:21:08.240Z,15.57
2022-10-26T22:23:39.718Z,15.56
2022-10-26T22:26:09.511Z,15.55
2022-10-26T22:28:41.534Z,15.60
2022-10-26T22:31:15.251Z,15.62
2022-10-26T22:33:42.228Z,15.60
2022-10-26T22:36:11.059Z,15.58
2022-10-26T22:38:37.566Z,15.56
2022-10-26T22:41:04.100Z,15.59
2022-10-26T22:43:30.598Z,15.61
2022-10-26T22:46:05.710Z,15.66
2022-10-26T22:48:33.620Z,15.57
2022-10-26T22:51:11.628Z,15.68
2022-10-26T22:53:38.309Z,15.70
2022-10-26T22:56:07.155Z,15.73
2022-10-26T22:58:34.860Z,15.71
2022-10-26T23:01:09.742Z,15.80
2022-10-26T23:03:36.446Z,15.84
2022-10-26T23:06:04.285Z,15.81
2022-10-26T23:08:30.779Z,15.89
2022-10-26T23:11:02.153Z,15.90
2022-10-26T23:13:29.432Z,15.93
2022-10-26T23:15:56.127Z,15.94
2022-10-26T23:18:22.743Z,15.93
2022-10-26T23:20:50.569Z,15.90
2022-10-26T23:23:17.609Z,15.93
2022-10-26T23:25:44.355Z,15.93
2022-10-26T23:28:11.145Z,15.91
2022-10-26T23:30:37.837Z,15.90
2022-10-26T23:33:04.193Z,15.88
2022-10-26T23:35:30.613Z,15.85
2022-10-26T23:37:58.640Z,15.83
2022-10-26T23:40:25.846Z,15.84
2022-10-26T23:42:52.534Z,15.85
2022-10-26T23:45:19.069Z,15.81
2022-10-26T23:47:45.405Z,15.84
2022-10-26T23:50:12.571Z,15.82
2022-10-26T23:52:38.977Z,15.86
2022-10-26T23:55:05.985Z,15.88
2022-10-26T23:57:32.547Z,15.71
2022-10-26T23:59:58.909Z,15.87
